Time;durP1;ratioP1;P1;durP2;ratioP2;P2;SDS_P1;SDS_P2;PMS_P1;PMS_P2;Temp;Humidity;BMP_temperature;BMP_pressure;BME280_temperature;BME280_humidity;BME280_pressure;Samples;Min_cycle;Max_cycle;Signal;HPM_P1;HPM_P2
2023/07/07 00:00:14;;;;;;;12.00;9.00;;;;;;;11.92;98.37;98294.79;106775;1276;22636;-77
2023/07/07 00:03:03;;;;;;;10.10;8.30;;;;;;;11.87;98.84;98293.27;106793;1276;22551;-75
2023/07/07 00:05:30;;;;;;;12.10;9.60;;;;;;;11.83;99.22;98297.35;106543;1276;23909;-76
2023/07/07 00:07:57;;;;;;;11.80;8.90;;;;;;;11.82;99.61;98298.45;106712;1278;22545;-76
2023/07/07 00:10:24;;;;;;;13.10;9.10;;;;;;;11.82;100.00;98297.31;106699;1277;25399;-76
2023/07/07 00:12:51;;;;;;;14.00;8.90;;;;;;;11.83;100.00;98295.40;106716;1277;22522;-76
2023/07/07 00:15:18;;;;;;;13.40;8.80;;;;;;;11.83;100.00;98300.01;106816;1277;25236;-76
2023/07/07 00:17:47;;;;;;;13.30;8.50;;;;;;;11.82;100.00;98302.88;106762;1277;22535;-76
2023/07/07 00:20:15;;;;;;;13.40;8.50;;;;;;;11.80;100.00;98299.34;106779;1277;22609;-77
2023/07/07 00:22:42;;;;;;;12.10;8.70;;;;;;;11.81;100.00;98303.98;106748;1276;25471;-77
2023/07/07 00:25:09;;;;;;;13.10;8.20;;;;;;;11.81;100.00;98305.44;106783;1277;25297;-77
2023/07/07 00:27:37;;;;;;;11.60;8.80;;;;;;;11.79;100.00;98311.20;106817;1277;24267;-77
2023/07/07 00:30:05;;;;;;;9.60;8.60;;;;;;;11.78;100.00;98309.10;106566;1276;22535;-77
2023/07/07 00:32:33;;;;;;;9.90;8.30;;;;;;;11.77;100.00;98309.86;106647;1275;22558;-77
2023/07/07 00:35:00;;;;;;;12.30;8.10;;;;;;;11.74;100.00;98306.99;106760;1277;22527;-77
2023/07/07 00:37:26;;;;;;;9.70;8.50;;;;;;;11.69;100.00;98307.95;106754;1276;22540;-77
2023/07/07 00:39:54;;;;;;;12.90;8.10;;;;;;;11.66;100.00;98303.63;106783;1276;23906;-77
2023/07/07 00:42:21;;;;;;;12.60;9.30;;;;;;;11.62;100.00;98306.09;106719;1276;24276;-76
2023/07/07 00:45:10;;;;;;;13.20;8.90;;;;;;;11.57;100.00;98305.55;106763;1276;22539;-78
2023/07/07 00:47:42;;;;;;;9.80;8.70;;;;;;;11.56;100.00;98309.38;106576;1276;24288;-76
2023/07/07 00:50:11;;;;;;;16.60;8.80;;;;;;;11.54;100.00;98311.91;106782;1276;22632;-76
2023/07/07 00:52:43;;;;;;;11.10;8.90;;;;;;;11.55;100.00;98315.79;106750;1276;22542;-76
2023/07/07 00:55:17;;;;;;;10.60;8.80;;;;;;;11.56;100.00;98321.40;106560;1276;22547;-76
2023/07/07 00:57:44;;;;;;;9.70;8.10;;;;;;;11.56;99.96;98319.45;106767;1276;22538;-77
2023/07/07 01:00:12;;;;;;;12.00;7.80;;;;;;;11.55;100.00;98327.23;106796;1276;24291;-77
2023/07/07 01:02:43;;;;;;;11.40;8.10;;;;;;;11.56;100.00;98324.80;106868;1276;22981;-77
2023/07/07 01:05:10;;;;;;;9.90;8.90;;;;;;;11.55;100.00;98323.10;106767;1276;22557;-77
2023/07/07 01:07:45;;;;;;;12.80;8.40;;;;;;;11.52;100.00;98325.11;106778;1270;24167;-77
2023/07/07 01:10:11;;;;;;;10.20;8.50;;;;;;;11.48;100.00;98324.55;106771;1276;22718;-77
2023/07/07 01:12:39;;;;;;;13.00;7.60;;;;;;;11.45;100.00;98327.73;106759;1276;25363;-78
2023/07/07 01:15:07;;;;;;;9.40;7.60;;;;;;;11.41;100.00;98326.80;106785;1276;22655;-77
2023/07/07 01:17:56;;;;;;;9.20;8.00;;;;;;;11.39;100.00;98321.07;106536;1278;23904;-77
2023/07/07 01:20:31;;;;;;;13.10;8.70;;;;;;;11.38;100.00;98319.99;106747;1277;25499;-78
2023/07/07 01:23:06;;;;;;;10.40;7.90;;;;;;;11.39;100.00;98324.16;106786;1272;24538;-77
2023/07/07 01:25:45;;;;;;;10.40;8.30;;;;;;;11.37;100.00;98327.08;106530;1278;24394;-77
2023/07/07 01:28:34;;;;;;;10.00;8.50;;;;;;;11.36;100.00;98326.61;106775;1276;24196;-78
2023/07/07 01:31:15;;;;;;;12.30;7.50;;;;;;;11.35;100.00;98323.66;106552;1277;25612;-77
2023/07/07 01:33:45;;;;;;;13.10;8.30;;;;;;;11.34;100.00;98325.50;106754;1278;23170;-78
2023/07/07 01:36:12;;;;;;;12.20;8.50;;;;;;;11.31;100.00;98326.70;106723;1271;22654;-78
2023/07/07 01:38:45;;;;;;;12.80;8.10;;;;;;;11.28;100.00;98327.38;107044;1276;22535;-76
2023/07/07 01:41:36;;;;;;;12.50;8.60;;;;;;;11.27;100.00;98328.48;106904;1276;22696;-77
2023/07/07 01:44:29;;;;;;;10.90;8.20;;;;;;;11.29;100.00;98324.34;106875;1276;22578;-76
2023/07/07 01:47:15;;;;;;;9.90;8.10;;;;;;;11.30;100.00;98323.89;106765;1276;22523;-77
2023/07/07 01:50:15;;;;;;;9.00;7.70;;;;;;;11.24;100.00;98328.95;106544;1276;22595;-76
2023/07/07 01:52:48;;;;;;;10.70;8.20;;;;;;;11.14;100.00;98328.23;106734;1276;22556;-76
2023/07/07 01:55:30;;;;;;;12.10;9.20;;;;;;;11.09;100.00;98327.76;106739;1270;25399;-76
2023/07/07 01:58:01;;;;;;;10.20;8.20;;;;;;;11.05;100.00;98325.23;106787;1276;22699;-76
2023/07/07 02:00:29;;;;;;;9.30;8.30;;;;;;;11.03;100.00;98330.05;106528;1276;25261;-76
2023/07/07 02:03:00;;;;;;;11.60;8.00;;;;;;;11.03;100.00;98331.20;106743;1276;25297;-75
2023/07/07 02:05:28;;;;;;;10.30;8.00;;;;;;;11.00;100.00;98331.50;106767;1276;22636;-75
2023/07/07 02:07:58;;;;;;;14.10;7.70;;;;;;;10.98;100.00;98333.80;106745;1276;23929;-76
2023/07/07 02:10:25;;;;;;;16.60;7.80;;;;;;;10.99;100.00;98333.95;106806;1276;25416;-76
2023/07/07 02:12:51;;;;;;;9.50;8.50;;;;;;;11.04;100.00;98337.65;106787;1276;22696;-76
2023/07/07 02:15:18;;;;;;;10.70;8.50;;;;;;;11.09;100.00;98339.95;106789;1276;22558;-77
2023/07/07 02:17:44;;;;;;;11.80;8.30;;;;;;;11.10;100.00;98341.38;106498;1276;24065;-76
2023/07/07 02:20:11;;;;;;;13.40;7.70;;;;;;;11.09;100.00;98345.61;106756;1276;25233;-75
2023/07/07 02:22:38;;;;;;;9.50;7.70;;;;;;;11.02;100.00;98346.73;106729;1276;22539;-76
2023/07/07 02:25:06;;;;;;;11.90;8.40;;;;;;;11.01;100.00;98349.73;106994;1276;22563;-76
2023/07/07 02:27:33;;;;;;;12.00;8.00;;;;;;;11.05;100.00;98349.28;106920;1276;25481;-76
2023/07/07 02:30:02;;;;;;;9.10;7.60;;;;;;;11.07;100.00;98351.91;106754;1276;22549;-77
2023/07/07 02:32:29;;;;;;;12.20;7.80;;;;;;;11.06;100.00;98352.73;106656;1277;24252;-76
2023/07/07 02:34:58;;;;;;;12.90;8.70;;;;;;;11.13;100.00;98355.11;106579;1278;25352;-77
2023/07/07 02:37:25;;;;;;;15.70;8.00;;;;;;;11.15;100.00;98354.77;106723;1276;25372;-76
2023/07/07 02:39:54;;;;;;;11.00;8.10;;;;;;;11.07;100.00;98354.82;106771;1276;26528;-75
2023/07/07 02:42:21;;;;;;;11.60;8.50;;;;;;;10.94;100.00;98357.73;106564;1278;22539;-76
2023/07/07 02:44:48;;;;;;;11.00;8.20;;;;;;;10.85;100.00;98358.10;106724;1276;25267;-76
2023/07/07 02:47:15;;;;;;;11.60;8.70;;;;;;;10.81;100.00;98361.25;106732;1276;22557;-76
2023/07/07 02:49:41;;;;;;;13.90;9.00;;;;;;;10.78;100.00;98363.23;106743;1276;26776;-76
2023/07/07 02:52:09;;;;;;;12.10;8.20;;;;;;;10.74;100.00;98359.92;106735;1276;22653;-76
2023/07/07 02:54:36;;;;;;;11.20;7.80;;;;;;;10.72;100.00;98361.24;106596;1276;25293;-77
2023/07/07 02:57:04;;;;;;;13.00;7.80;;;;;;;10.72;100.00;98365.83;106710;1276;23409;-77
2023/07/07 02:59:30;;;;;;;9.30;8.20;;;;;;;10.72;100.00;98365.17;106854;1276;22540;-77
2023/07/07 03:01:57;;;;;;;12.40;8.30;;;;;;;10.71;100.00;98366.36;106744;1276;24246;-77
2023/07/07 03:04:24;;;;;;;11.20;8.00;;;;;;;10.66;100.00;98369.77;106774;1276;24355;-76
2023/07/07 03:06:51;;;;;;;16.40;9.00;;;;;;;10.64;100.00;98373.52;106756;1276;25485;-76
2023/07/07 03:09:18;;;;;;;10.40;8.30;;;;;;;10.60;100.00;98375.29;106753;1270;22550;-76
2023/07/07 03:11:45;;;;;;;9.10;7.80;;;;;;;10.59;100.00;98374.70;106825;1276;25338;-76
2023/07/07 03:14:15;;;;;;;11.80;7.70;;;;;;;10.58;100.00;98374.54;106685;1278;25236;-77
2023/07/07 03:16:46;;;;;;;9.90;8.40;;;;;;;10.59;100.00;98378.90;106791;1277;25314;-76
2023/07/07 03:19:18;;;;;;;11.40;8.30;;;;;;;10.63;100.00;98379.89;106549;1278;22564;-77
2023/07/07 03:21:54;;;;;;;8.80;7.90;;;;;;;10.64;100.00;98381.49;106512;1277;25301;-76
2023/07/07 03:24:41;;;;;;;9.90;8.50;;;;;;;10.61;100.00;98383.69;106563;1277;22543;-76
2023/07/07 03:27:15;;;;;;;9.90;8.90;;;;;;;10.62;100.00;98383.95;106714;1271;26058;-76
2023/07/07 03:29:42;;;;;;;9.50;7.50;;;;;;;10.64;100.00;98390.60;106706;1276;22593;-76
2023/07/07 03:32:08;;;;;;;10.90;7.60;;;;;;;10.65;100.00;98391.73;106495;1277;22874;-78
2023/07/07 03:34:41;;;;;;;10.80;8.00;;;;;;;10.68;100.00;98391.31;106716;1276;22546;-76
2023/07/07 03:37:09;;;;;;;9.60;8.50;;;;;;;10.76;100.00;98386.70;106747;1276;25393;-77
2023/07/07 03:39:37;;;;;;;10.20;8.40;;;;;;;10.82;100.00;98382.05;106767;1276;25290;-77
2023/07/07 03:42:08;;;;;;;11.10;8.20;;;;;;;10.85;100.00;98382.48;106752;1276;22685;-76
2023/07/07 03:44:36;;;;;;;11.40;8.30;;;;;;;10.87;100.00;98384.23;106707;1276;22657;-76
2023/07/07 03:47:02;;;;;;;9.30;8.30;;;;;;;10.91;100.00;98384.63;106558;1276;22564;-77
2023/07/07 03:49:29;;;;;;;11.60;9.40;;;;;;;10.97;100.00;98380.84;106653;1276;22623;-77
2023/07/07 03:51:56;;;;;;;11.70;9.20;;;;;;;11.03;100.00;98385.92;106691;1276;25394;-77
2023/07/07 03:54:22;;;;;;;10.40;9.30;;;;;;;11.12;100.00;98392.08;106471;1276;22754;-77
2023/07/07 03:56:50;;;;;;;12.10;9.40;;;;;;;11.23;100.00;98392.68;106700;1276;25237;-77
2023/07/07 03:59:20;;;;;;;12.40;9.20;;;;;;;11.36;100.00;98394.07;106771;1276;22547;-76
2023/07/07 04:01:48;;;;;;;10.50;9.40;;;;;;;11.49;100.00;98394.09;106724;1276;25452;-77
2023/07/07 04:04:15;;;;;;;13.10;9.80;;;;;;;11.62;100.00;98393.69;106781;1276;22542;-77
2023/07/07 04:06:42;;;;;;;12.20;10.30;;;;;;;11.76;100.00;98400.65;106725;1276;22543;-77
2023/07/07 04:09:08;;;;;;;14.50;10.60;;;;;;;11.97;100.00;98400.58;106533;1273;22545;-76
2023/07/07 04:11:35;;;;;;;13.80;9.40;;;;;;;12.20;100.00;98400.58;106667;1276;22544;-76
2023/07/07 04:14:02;;;;;;;11.50;10.30;;;;;;;12.46;100.00;98402.31;106677;1276;24227;-76
2023/07/07 04:16:28;;;;;;;14.10;11.40;;;;;;;12.70;100.00;98402.13;106487;1276;22659;-77
2023/07/07 04:18:56;;;;;;;12.40;11.00;;;;;;;12.88;100.00;98403.24;106724;1276;22537;-77
2023/07/07 04:21:25;;;;;;;15.10;12.90;;;;;;;13.04;100.00;98403.19;106692;1276;24198;-77
2023/07/07 04:23:54;;;;;;;15.70;12.20;;;;;;;13.22;100.00;98407.58;106593;1272;22525;-76
2023/07/07 04:26:22;;;;;;;14.40;12.40;;;;;;;13.40;100.00;98407.73;106809;1276;22722;-78
2023/07/07 04:28:53;;;;;;;14.30;12.60;;;;;;;13.55;100.00;98409.11;106617;1262;22544;-79
2023/07/07 04:31:23;;;;;;;21.50;12.20;;;;;;;13.69;100.00;98406.69;106550;1277;22550;-79
2023/07/07 04:33:50;;;;;;;14.90;12.70;;;;;;;13.89;100.00;98407.05;106777;1276;24083;-79
2023/07/07 04:36:18;;;;;;;16.70;12.30;;;;;;;14.07;100.00;98408.75;106843;1276;22540;-77
2023/07/07 04:38:45;;;;;;;14.40;13.00;;;;;;;14.25;100.00;98409.98;106766;1276;22640;-77
2023/07/07 04:41:11;;;;;;;16.50;13.20;;;;;;;14.44;100.00;98412.86;106771;1276;24305;-76
2023/07/07 04:43:44;;;;;;;22.90;14.80;;;;;;;14.54;100.00;98412.92;106663;1276;205055;-75
2023/07/07 04:46:15;;;;;;;19.20;16.70;;;;;;;14.65;100.00;98416.66;106772;1276;22534;-75
2023/07/07 04:48:42;;;;;;;22.50;16.00;;;;;;;14.71;100.00;98423.00;106776;1276;22556;-75
2023/07/07 04:51:11;;;;;;;18.70;15.90;;;;;;;14.78;100.00;98419.06;106797;1276;22575;-75
2023/07/07 04:53:39;;;;;;;19.70;16.70;;;;;;;14.87;100.00;98419.41;106923;1276;24349;-74
2023/07/07 04:56:35;;;;;;;18.10;15.60;;;;;;;14.94;100.00;98420.24;106735;1276;25437;-76
2023/07/07 04:59:04;;;;;;;22.20;16.50;;;;;;;15.04;100.00;98420.80;106716;1276;22545;-76
2023/07/07 05:01:31;;;;;;;20.20;16.60;;;;;;;15.13;100.00;98419.63;106810;1276;25565;-75
2023/07/07 05:04:00;;;;;;;22.80;18.00;;;;;;;15.20;100.00;98424.23;106753;1276;25500;-75
2023/07/07 05:06:31;;;;;;;22.30;17.60;;;;;;;15.27;100.00;98422.85;106831;1276;22565;-75
2023/07/07 05:08:58;;;;;;;18.60;16.40;;;;;;;15.37;100.00;98427.91;106686;1276;25619;-74
2023/07/07 05:11:29;;;;;;;23.90;16.70;;;;;;;15.47;100.00;98422.15;106709;1276;22586;-75
2023/07/07 05:13:55;;;;;;;21.80;17.30;;;;;;;15.57;100.00;98423.42;106754;1276;22541;-74
2023/07/07 05:16:25;;;;;;;20.20;16.90;;;;;;;15.65;100.00;98425.02;106835;1276;22653;-75
2023/07/07 05:18:52;;;;;;;24.20;17.40;;;;;;;15.76;100.00;98428.61;106732;1276;22557;-74
2023/07/07 05:21:22;;;;;;;28.30;18.60;;;;;;;15.86;100.00;98427.36;106825;1276;22996;-75
2023/07/07 05:23:51;;;;;;;23.90;18.70;;;;;;;15.97;100.00;98426.21;106717;1276;22727;-76
2023/07/07 05:26:27;;;;;;;27.00;18.50;;;;;;;16.09;100.00;98426.72;106678;1276;22545;-77
2023/07/07 05:28:58;;;;;;;24.60;18.80;;;;;;;16.16;100.00;98430.16;106736;1276;25338;-77
2023/07/07 05:31:25;;;;;;;23.00;19.90;;;;;;;16.23;100.00;98427.33;106746;1276;23914;-76
2023/07/07 05:33:52;;;;;;;25.10;18.90;;;;;;;16.31;100.00;98424.56;106648;1275;22585;-75
2023/07/07 05:36:18;;;;;;;23.30;17.10;;;;;;;16.40;100.00;98425.09;106699;1276;25383;-76
2023/07/07 05:38:45;;;;;;;19.60;17.50;;;;;;;16.48;100.00;98425.38;106569;1272;22571;-76
2023/07/07 05:41:11;;;;;;;23.70;17.90;;;;;;;16.59;100.00;98424.20;106701;1277;22531;-76
2023/07/07 05:43:38;;;;;;;22.90;18.90;;;;;;;16.71;100.00;98422.27;106741;1276;22533;-76
2023/07/07 05:46:08;;;;;;;22.30;18.10;;;;;;;16.82;100.00;98423.76;106707;1276;22544;-76
2023/07/07 05:48:35;;;;;;;26.40;18.30;;;;;;;16.89;100.00;98426.06;106753;1276;22649;-75
2023/07/07 05:51:05;;;;;;;25.20;19.30;;;;;;;16.96;100.00;98430.30;106642;1254;22558;-75
2023/07/07 05:53:34;;;;;;;22.00;17.80;;;;;;;17.07;100.00;98435.21;106700;1276;22545;-75
2023/07/07 05:56:08;;;;;;;20.80;17.40;;;;;;;17.17;100.00;98433.04;106697;1276;22548;-75
2023/07/07 05:58:35;;;;;;;21.80;17.00;;;;;;;17.29;99.78;98429.27;106782;1269;22543;-75
2023/07/07 06:01:02;;;;;;;21.20;16.70;;;;;;;17.40;99.93;98433.92;106794;1276;22537;-76
2023/07/07 06:03:30;;;;;;;23.80;17.10;;;;;;;17.52;99.99;98435.77;106726;1276;22520;-76
2023/07/07 06:05:57;;;;;;;17.70;15.90;;;;;;;17.65;99.94;98440.55;106722;1277;24245;-78
2023/07/07 06:08:23;;;;;;;19.90;15.10;;;;;;;17.79;99.46;98440.91;107089;1276;23606;-76
2023/07/07 06:10:51;;;;;;;21.80;16.10;;;;;;;17.93;99.55;98441.36;106722;1276;23114;-76
2023/07/07 06:13:17;;;;;;;25.10;18.40;;;;;;;18.04;99.29;98441.70;106801;1276;24255;-76
2023/07/07 06:15:45;;;;;;;20.20;17.50;;;;;;;18.14;98.98;98442.45;106750;1276;22663;-76
2023/07/07 06:18:12;;;;;;;24.60;16.40;;;;;;;18.27;98.76;98440.02;106740;1276;24233;-75
2023/07/07 06:20:38;;;;;;;23.80;15.70;;;;;;;18.37;97.66;98443.80;106710;1276;22637;-76
2023/07/07 06:23:08;;;;;;;17.90;15.30;;;;;;;18.50;97.88;98447.52;106685;1276;22554;-76
2023/07/07 06:25:34;;;;;;;20.90;14.60;;;;;;;18.65;97.10;98448.80;106647;1276;22599;-76
2023/07/07 06:28:01;;;;;;;21.00;13.40;;;;;;;18.78;96.42;98457.77;106689;1276;22639;-75
2023/07/07 06:30:27;;;;;;;15.90;11.30;;;;;;;18.99;97.59;98453.41;106715;1276;25230;-77
2023/07/07 06:32:54;;;;;;;19.10;13.80;;;;;;;19.33;97.42;98456.33;107180;1276;22659;-77
2023/07/07 06:35:20;;;;;;;21.70;13.00;;;;;;;19.50;95.56;98457.48;107039;1276;22532;-77
2023/07/07 06:37:47;;;;;;;22.30;14.90;;;;;;;19.74;95.50;98460.11;106998;1276;25251;-77
2023/07/07 06:40:14;;;;;;;26.40;15.00;;;;;;;19.83;94.31;98460.98;106675;1276;22642;-75
2023/07/07 06:42:41;;;;;;;18.50;14.60;;;;;;;19.92;94.31;98458.61;107021;1276;22535;-76
2023/07/07 06:45:09;;;;;;;23.90;13.40;;;;;;;20.03;93.60;98454.92;107030;1276;23326;-77
2023/07/07 06:47:36;;;;;;;18.70;13.00;;;;;;;20.09;91.78;98459.64;107015;1276;22571;-76
2023/07/07 06:50:02;;;;;;;17.50;11.20;;;;;;;20.17;91.65;98460.79;106946;1276;24551;-76
2023/07/07 06:52:29;;;;;;;17.10;11.50;;;;;;;20.28;92.27;98458.29;107014;1276;24337;-74
2023/07/07 06:54:56;;;;;;;16.30;10.70;;;;;;;20.39;90.13;98460.86;106762;1276;24444;-74
2023/07/07 06:57:23;;;;;;;12.90;9.40;;;;;;;20.50;88.13;98463.56;106998;1276;22564;-74
2023/07/07 06:59:49;;;;;;;17.80;10.70;;;;;;;20.60;88.07;98461.98;106675;1276;22493;-75
2023/07/07 07:02:16;;;;;;;15.40;10.80;;;;;;;20.73;86.68;98459.80;106614;1276;22551;-75
2023/07/07 07:04:43;;;;;;;17.30;9.40;;;;;;;20.86;87.59;98461.95;106632;1276;24230;-79
2023/07/07 07:07:10;;;;;;;15.90;9.30;;;;;;;21.02;86.42;98464.14;106658;1277;25382;-75
2023/07/07 07:09:36;;;;;;;15.60;9.40;;;;;;;21.15;85.33;98466.34;106657;1276;22557;-75
2023/07/07 07:12:03;;;;;;;12.10;7.90;;;;;;;21.29;84.35;98467.92;106629;1276;22534;-74
2023/07/07 07:14:30;;;;;;;11.50;8.10;;;;;;;21.59;85.24;98466.05;106586;1277;22613;-74
2023/07/07 07:16:57;;;;;;;13.00;6.60;;;;;;;21.85;84.17;98469.04;106602;1262;23033;-74
2023/07/07 07:19:23;;;;;;;11.20;5.70;;;;;;;22.04;82.36;98471.95;106613;1276;22791;-74
2023/07/07 07:21:50;;;;;;;8.40;4.90;;;;;;;21.97;73.26;98475.17;106598;1276;22635;-73
2023/07/07 07:24:19;;;;;;;8.90;4.70;;;;;;;21.95;73.24;98478.65;106641;1277;25108;-76
2023/07/07 07:26:46;;;;;;;10.20;5.00;;;;;;;21.94;69.95;98479.27;106751;1276;22541;-75
2023/07/07 07:29:14;;;;;;;10.10;5.90;;;;;;;21.96;68.05;98483.07;106622;1276;22658;-75
2023/07/07 07:31:42;;;;;;;9.50;5.20;;;;;;;22.03;71.01;98480.87;106979;1276;25446;-75
2023/07/07 07:34:24;;;;;;;7.40;4.50;;;;;;;22.10;66.49;98485.09;106955;1278;24281;-75
2023/07/07 07:36:52;;;;;;;12.20;4.70;;;;;;;22.13;69.30;98478.73;107052;1276;22548;-75
2023/07/07 07:39:20;;;;;;;6.40;4.10;;;;;;;22.28;69.14;98483.36;107130;1269;22533;-75
2023/07/07 07:41:50;;;;;;;9.40;5.10;;;;;;;22.40;65.82;98485.65;106739;1276;22535;-76
2023/07/07 07:44:18;;;;;;;11.90;5.60;;;;;;;22.53;66.80;98483.29;107044;1269;22557;-75
2023/07/07 07:46:47;;;;;;;7.70;5.60;;;;;;;22.63;66.09;98485.36;106804;1276;22546;-77
2023/07/07 07:49:14;;;;;;;8.40;4.50;;;;;;;22.63;61.16;98492.20;106700;1277;25323;-77
2023/07/07 07:51:41;;;;;;;6.70;4.10;;;;;;;22.60;59.65;98491.66;106638;1277;25264;-77
2023/07/07 07:54:12;;;;;;;11.60;4.00;;;;;;;22.65;56.82;98492.55;106776;1276;25386;-77
2023/07/07 07:56:39;;;;;;;8.40;4.80;;;;;;;22.59;50.92;98494.23;106727;1276;22547;-77
2023/07/07 07:59:07;;;;;;;7.70;4.10;;;;;;;22.45;50.65;98495.40;106637;1276;22543;-77
2023/07/07 08:01:34;;;;;;;6.70;3.80;;;;;;;22.32;54.36;98495.91;106571;1276;22538;-78
2023/07/07 08:04:05;;;;;;;6.60;4.30;;;;;;;22.31;56.88;98494.01;106735;1276;22546;-77
2023/07/07 08:06:33;;;;;;;7.40;4.20;;;;;;;22.47;57.86;98492.04;106744;1276;24124;-77
2023/07/07 08:09:00;;;;;;;7.10;3.40;;;;;;;22.67;56.36;98492.27;107057;1276;22548;-77
2023/07/07 08:11:47;;;;;;;10.60;3.70;;;;;;;22.84;53.40;98496.89;106805;1276;25479;-78
2023/07/07 08:14:23;;;;;;;7.60;3.60;;;;;;;23.04;51.56;98496.09;107027;1276;22754;-77
2023/07/07 08:16:53;;;;;;;6.50;3.60;;;;;;;23.20;54.51;98494.23;107055;1273;25402;-78
2023/07/07 08:19:20;;;;;;;7.30;3.10;;;;;;;23.30;54.45;98491.48;106709;1276;22565;-77
2023/07/07 08:21:47;;;;;;;9.40;3.90;;;;;;;23.32;54.74;98494.34;107036;1276;22592;-78
2023/07/07 08:24:15;;;;;;;4.20;3.30;;;;;;;23.30;48.54;98493.69;107089;1276;22534;-78
2023/07/07 08:26:43;;;;;;;7.90;3.50;;;;;;;23.25;44.20;98496.19;106668;1276;25075;-77
2023/07/07 08:29:10;;;;;;;6.40;3.10;;;;;;;23.16;43.17;98499.73;106700;1276;25328;-78
2023/07/07 08:31:51;;;;;;;6.80;3.10;;;;;;;23.17;46.42;98495.27;106874;1276;25412;-78
2023/07/07 08:34:18;;;;;;;5.30;3.30;;;;;;;23.21;47.36;98497.08;107090;1273;23902;-78
2023/07/07 08:36:46;;;;;;;5.10;3.00;;;;;;;23.26;44.91;98494.40;106925;1276;24265;-77
2023/07/07 08:39:21;;;;;;;5.30;3.20;;;;;;;23.32;43.98;98498.91;107048;1276;22740;-77
2023/07/07 08:41:54;;;;;;;6.30;3.20;;;;;;;23.28;42.01;98504.33;106738;1273;23377;-76
2023/07/07 08:44:24;;;;;;;5.60;2.90;;;;;;;23.07;43.03;98505.10;106807;1276;25363;-76
2023/07/07 08:46:59;;;;;;;7.10;3.60;;;;;;;22.91;43.53;98510.22;106726;1276;22534;-76
2023/07/07 08:49:38;;;;;;;6.80;3.60;;;;;;;22.78;43.59;98512.25;106616;1276;25549;-77
2023/07/07 08:52:17;;;;;;;6.70;3.40;;;;;;;22.67;45.25;98513.98;106962;1276;25480;-77
2023/07/07 08:55:06;;;;;;;9.40;3.90;;;;;;;22.62;45.60;98511.65;106693;1276;22548;-77
2023/07/07 08:57:41;;;;;;;5.20;3.70;;;;;;;22.61;46.41;98515.70;107074;1276;22636;-77
2023/07/07 09:00:32;;;;;;;6.90;3.70;;;;;;;22.65;46.12;98517.35;106798;1276;22538;-77
2023/07/07 09:03:17;;;;;;;7.40;3.60;;;;;;;22.63;46.43;98519.34;106747;1276;22535;-77
2023/07/07 09:06:12;;;;;;;8.60;4.20;;;;;;;22.65;47.52;98522.23;106680;1276;24396;-77
2023/07/07 09:08:54;;;;;;;8.60;4.10;;;;;;;22.73;47.75;98523.69;106736;1276;25284;-77
2023/07/07 09:11:59;;;;;;;6.40;3.50;;;;;;;22.84;47.83;98521.95;106749;1269;25396;-77
2023/07/07 09:14:27;;;;;;;7.90;3.80;;;;;;;22.97;46.49;98528.30;106732;1276;22781;-77
2023/07/07 09:17:11;;;;;;;5.40;4.00;;;;;;;22.94;45.95;98527.75;106710;1276;22548;-77
2023/07/07 09:19:42;;;;;;;7.00;4.30;;;;;;;22.85;46.54;98528.55;106651;1276;22546;-77
2023/07/07 09:22:37;;;;;;;8.80;4.80;;;;;;;22.95;47.29;98528.52;106809;1257;22542;-77
2023/07/07 09:25:06;;;;;;;8.90;4.20;;;;;;;23.22;46.80;98527.81;106792;1276;22529;-76
2023/07/07 09:27:39;;;;;;;5.80;4.20;;;;;;;23.15;44.58;98528.88;106699;1276;22583;-77
2023/07/07 09:30:31;;;;;;;6.70;4.00;;;;;;;23.15;45.53;98528.62;107062;1276;25324;-77
2023/07/07 09:32:58;;;;;;;7.50;3.50;;;;;;;23.43;45.07;98525.00;106716;1276;23312;-77
2023/07/07 09:35:31;;;;;;;7.10;3.80;;;;;;;23.70;44.87;98526.29;106730;1276;22550;-77
2023/07/07 09:38:13;;;;;;;6.20;3.40;;;;;;;23.88;45.99;98524.98;106765;1276;22538;-77
2023/07/07 09:41:16;;;;;;;11.30;3.60;;;;;;;24.03;46.13;98521.82;106715;1276;22542;-76
2023/07/07 09:44:10;;;;;;;8.20;3.50;;;;;;;24.40;46.06;98518.59;106708;1276;22552;-77
2023/07/07 09:46:59;;;;;;;8.20;3.50;;;;;;;24.79;45.98;98514.92;107090;1271;24235;-76
2023/07/07 09:49:43;;;;;;;7.10;3.30;;;;;;;25.13;43.28;98511.96;106720;1276;22640;-76
2023/07/07 09:52:28;;;;;;;6.00;3.30;;;;;;;25.19;42.34;98513.54;106678;1276;22541;-76
2023/07/07 09:54:58;;;;;;;7.70;2.90;;;;;;;25.08;43.63;98517.02;106767;1276;25423;-76
2023/07/07 09:57:37;;;;;;;6.40;3.10;;;;;;;24.97;42.64;98521.27;106752;1276;25676;-77
2023/07/07 10:00:05;;;;;;;5.40;2.80;;;;;;;24.68;39.77;98523.41;106694;1276;22935;-78
2023/07/07 10:02:34;;;;;;;7.80;3.60;;;;;;;24.27;40.50;98526.53;106747;1276;24083;-77
2023/07/07 10:05:07;;;;;;;6.30;3.00;;;;;;;24.03;40.97;98525.82;107100;1276;22550;-77
2023/07/07 10:07:37;;;;;;;5.80;3.90;;;;;;;23.83;41.55;98526.02;106770;1276;24246;-76
2023/07/07 10:10:06;;;;;;;8.00;4.50;;;;;;;23.78;42.26;98529.48;106807;1276;23059;-77
2023/07/07 10:12:33;;;;;;;7.10;3.50;;;;;;;24.01;43.13;98530.83;106829;1276;22657;-77
2023/07/07 10:15:27;;;;;;;4.80;3.10;;;;;;;24.35;43.28;98529.39;106718;1276;22551;-77
2023/07/07 10:18:00;;;;;;;6.50;3.20;;;;;;;24.87;43.73;98525.17;107046;1276;24262;-78
2023/07/07 10:20:27;;;;;;;8.30;3.00;;;;;;;25.34;43.32;98522.02;108040;1276;23238;-78
2023/07/07 10:22:54;;;;;;;7.80;3.50;;;;;;;25.50;41.66;98516.84;107448;1276;22727;-78
2023/07/07 10:25:22;;;;;;;5.10;3.00;;;;;;;25.34;41.66;98520.11;106764;1276;25420;-77
2023/07/07 10:27:52;;;;;;;5.10;3.10;;;;;;;25.19;41.56;98518.17;107031;1276;22572;-78
2023/07/07 10:30:20;;;;;;;4.70;3.00;;;;;;;25.00;41.05;98521.99;106723;1276;22656;-78
2023/07/07 10:32:51;;;;;;;4.40;3.10;;;;;;;25.04;41.77;98521.40;107079;1276;23967;-79
2023/07/07 10:35:20;;;;;;;5.60;2.90;;;;;;;25.36;41.62;98520.99;107104;1276;24062;-78
2023/07/07 10:37:47;;;;;;;5.00;2.90;;;;;;;25.46;40.57;98516.80;107089;1276;22549;-77
2023/07/07 10:40:21;;;;;;;5.00;2.60;;;;;;;25.44;40.19;98514.91;106745;1276;25246;-78
2023/07/07 10:42:53;;;;;;;4.50;2.60;;;;;;;25.21;37.86;98512.60;107371;1276;24299;-77
2023/07/07 10:45:22;;;;;;;6.00;2.50;;;;;;;25.01;39.20;98514.61;107301;1276;22594;-77
2023/07/07 10:47:49;;;;;;;6.90;2.60;;;;;;;24.82;38.74;98518.52;106948;1276;25405;-77
2023/07/07 10:50:22;;;;;;;5.40;3.00;;;;;;;24.63;38.35;98519.56;106832;1276;22783;-78
2023/07/07 10:53:10;;;;;;;5.10;2.90;;;;;;;24.33;38.88;98519.21;106971;1276;22635;-78
2023/07/07 10:56:17;;;;;;;6.30;2.90;;;;;;;24.05;39.48;98518.61;107195;1269;22660;-76
2023/07/07 10:58:53;;;;;;;5.40;3.30;;;;;;;23.76;40.50;98519.87;106819;1276;24416;-78
2023/07/07 11:02:01;;;;;;;5.30;3.10;;;;;;;23.71;40.33;98517.91;106841;1276;23318;-77
2023/07/07 11:04:43;;;;;;;5.00;3.00;;;;;;;23.66;40.77;98518.52;106830;1276;22549;-77
2023/07/07 11:07:46;;;;;;;6.90;3.10;;;;;;;23.72;40.09;98518.08;106747;1276;22564;-77
2023/07/07 11:10:34;;;;;;;4.70;2.90;;;;;;;23.77;39.57;98515.02;107199;1272;25359;-77
2023/07/07 11:14:03;;;;;;;4.40;2.60;;;;;;;23.87;40.26;98515.38;106885;1276;23102;-76
2023/07/07 11:16:53;;;;;;;6.30;3.10;;;;;;;24.03;40.13;98513.17;105868;1291;22664;-77
2023/07/07 11:19:38;;;;;;;4.10;2.90;;;;;;;24.15;39.71;98514.73;105853;1291;26024;-76
2023/07/07 11:22:35;;;;;;;5.00;2.60;;;;;;;24.03;39.29;98517.16;105871;1291;22810;-77
2023/07/07 11:25:19;;;;;;;6.00;2.60;;;;;;;23.81;38.87;98519.39;105844;1291;23946;-76
2023/07/07 11:27:54;;;;;;;5.30;2.80;;;;;;;23.73;39.45;98521.47;105930;1291;22567;-76
2023/07/07 11:30:40;;;;;;;4.60;2.50;;;;;;;23.73;38.86;98521.08;105763;1291;24270;-76
2023/07/07 11:33:22;;;;;;;4.40;2.80;;;;;;;23.73;39.68;98519.04;105845;1291;22609;-75
2023/07/07 11:36:08;;;;;;;5.30;3.40;;;;;;;23.88;40.30;98518.54;105840;1291;22628;-76